createdAt,value
2023-01-12T00:00:25.535Z,6.30
2023-01-12T00:02:52.549Z,5.90
2023-01-12T00:05:19.572Z,7.03
2023-01-12T00:07:46.581Z,5.90
2023-01-12T00:10:13.608Z,4.30
2023-01-12T00:12:40.642Z,9.67
2023-01-12T00:15:08.104Z,15.20
2023-01-12T00:17:35.289Z,5.63
2023-01-12T00:20:02.342Z,9.63
2023-01-12T00:22:29.340Z,5.60
2023-01-12T00:24:56.340Z,7.83
2023-01-12T00:27:23.398Z,5.60
2023-01-12T00:29:50.625Z,4.70
2023-01-12T00:32:19.438Z,5.90
2023-01-12T00:34:46.459Z,10.40
2023-01-12T00:37:13.796Z,4.93
2023-01-12T00:39:45.877Z,8.60
2023-01-12T00:42:42.298Z,4.67
2023-01-12T00:45:22.312Z,5.00
2023-01-12T00:47:49.391Z,7.37
2023-01-12T00:50:19.253Z,6.73
2023-01-12T00:52:46.548Z,6.90
2023-01-12T00:55:13.581Z,6.17
2023-01-12T00:57:40.627Z,5.87
2023-01-12T01:00:07.950Z,4.20
2023-01-12T01:02:35.037Z,6.90
2023-01-12T01:05:02.069Z,4.97
2023-01-12T01:07:29.112Z,3.73
2023-01-12T01:09:56.123Z,6.33
2023-01-12T01:12:23.123Z,7.20
2023-01-12T01:14:50.284Z,8.57
2023-01-12T01:17:17.298Z,7.07
2023-01-12T01:19:44.344Z,10.33
2023-01-12T01:22:12.841Z,7.13
2023-01-12T01:24:39.876Z,6.40
2023-01-12T01:27:06.880Z,6.47
2023-01-12T01:29:33.895Z,6.20
2023-01-12T01:32:00.933Z,6.73
2023-01-12T01:34:27.995Z,2.83
2023-01-12T01:36:55.002Z,5.37
2023-01-12T01:39:22.014Z,6.13
2023-01-12T01:41:49.020Z,8.57
2023-01-12T01:44:31.366Z,4.90
2023-01-12T01:47:00.889Z,5.27
2023-01-12T01:49:37.114Z,4.23
2023-01-12T01:52:09.181Z,7.97
2023-01-12T01:54:59.268Z,6.43
2023-01-12T01:57:32.915Z,7.80
2023-01-12T02:00:00.834Z,7.03
2023-01-12T02:02:27.831Z,5.43
2023-01-12T02:04:57.028Z,4.60
2023-01-12T02:07:25.248Z,5.10
2023-01-12T02:09:53.187Z,4.93
2023-01-12T02:12:39.575Z,6.40
2023-01-12T02:15:26.331Z,5.93
2023-01-12T02:18:12.444Z,7.97
2023-01-12T02:20:48.591Z,9.77
2023-01-12T02:23:25.787Z,6.07
2023-01-12T02:25:56.442Z,4.93
2023-01-12T02:28:43.270Z,6.60
2023-01-12T02:31:21.996Z,9.05
2023-01-12T02:34:00.165Z,4.70
2023-01-12T02:36:47.203Z,4.90
2023-01-12T02:39:27.642Z,7.67
2023-01-12T02:42:20.282Z,5.67
2023-01-12T02:45:00.832Z,7.60
2023-01-12T02:47:31.320Z,6.80
2023-01-12T02:50:01.642Z,4.83
2023-01-12T02:52:32.190Z,6.87
2023-01-12T02:55:03.524Z,6.60
2023-01-12T02:57:33.208Z,5.83
2023-01-12T03:00:01.859Z,6.33
2023-01-12T03:02:30.463Z,5.77
2023-01-12T03:04:58.088Z,6.07
2023-01-12T03:07:30.516Z,4.43
2023-01-12T03:10:01.078Z,6.27
2023-01-12T03:12:32.017Z,5.27
2023-01-12T03:15:12.057Z,6.57
2023-01-12T03:17:47.816Z,8.30
2023-01-12T03:20:25.912Z,9.10
2023-01-12T03:23:35.395Z,5.80
2023-01-12T03:26:44.532Z,6.47
2023-01-12T03:29:21.361Z,9.27
2023-01-12T03:31:53.775Z,10.47
2023-01-12T03:34:23.456Z,9.87
2023-01-12T03:37:09.447Z,6.27
2023-01-12T03:39:58.797Z,9.57
2023-01-12T03:42:46.796Z,8.03
2023-01-12T03:45:30.447Z,7.75
2023-01-12T03:48:13.749Z,8.73
2023-01-12T03:50:59.251Z,9.10
2023-01-12T03:53:40.123Z,8.93
2023-01-12T03:56:20.742Z,7.33
2023-01-12T03:59:02.099Z,6.83
2023-01-12T04:01:29.387Z,7.10
2023-01-12T04:03:56.494Z,4.80
2023-01-12T04:06:23.605Z,8.23
2023-01-12T04:08:50.686Z,6.93
2023-01-12T04:11:36.607Z,8.17
2023-01-12T04:14:03.659Z,5.73
2023-01-12T04:16:36.122Z,4.10
2023-01-12T04:19:08.585Z,6.83
2023-01-12T04:21:59.708Z,7.97
2023-01-12T04:24:32.205Z,11.77
2023-01-12T04:27:04.706Z,5.53
2023-01-12T04:29:39.080Z,7.90
2023-01-12T04:32:11.790Z,6.93
2023-01-12T04:34:52.389Z,8.27
2023-01-12T04:37:33.786Z,7.87
2023-01-12T04:40:16.914Z,7.90
2023-01-12T04:43:11.941Z,7.57
2023-01-12T04:45:57.832Z,4.87
2023-01-12T04:48:27.011Z,7.30
2023-01-12T04:51:07.860Z,6.10
2023-01-12T04:53:54.900Z,5.23
2023-01-12T04:57:02.864Z,11.97
2023-01-12T04:59:59.073Z,9.60
2023-01-12T05:02:26.134Z,8.83
2023-01-12T05:04:53.150Z,5.87
2023-01-12T05:07:20.197Z,6.97
2023-01-12T05:10:05.963Z,9.83
2023-01-12T05:12:33.064Z,7.57
2023-01-12T05:15:00.130Z,9.47
2023-01-12T05:17:27.174Z,8.27
2023-01-12T05:19:54.172Z,8.43
2023-01-12T05:22:21.174Z,5.93
2023-01-12T05:24:48.258Z,5.80
2023-01-12T05:27:15.317Z,7.33
2023-01-12T05:29:42.377Z,9.97
2023-01-12T05:32:33.494Z,9.73
2023-01-12T05:35:12.207Z,7.40
2023-01-12T05:37:38.781Z,7.77
2023-01-12T05:40:05.863Z,8.67
2023-01-12T05:42:51.346Z,9.47
2023-01-12T05:45:17.907Z,7.90
2023-01-12T05:47:44.560Z,9.07
2023-01-12T05:50:11.277Z,10.47
2023-01-12T05:52:37.916Z,6.63
2023-01-12T05:55:05.193Z,11.27
2023-01-12T05:57:31.962Z,8.73
2023-01-12T05:59:58.537Z,9.53
2023-01-12T06:02:25.181Z,6.87
2023-01-12T06:04:51.852Z,6.70
2023-01-12T06:07:18.531Z,9.37
2023-01-12T06:09:47.960Z,9.40
2023-01-12T06:12:33.554Z,8.40
2023-01-12T06:15:00.603Z,10.65
2023-01-12T06:17:27.614Z,10.00
2023-01-12T06:19:54.624Z,7.17
2023-01-12T06:22:21.669Z,8.70
2023-01-12T06:24:49.179Z,7.80
2023-01-12T06:27:16.868Z,5.93
2023-01-12T06:29:43.938Z,9.47
2023-01-12T06:32:11.010Z,10.70
2023-01-12T06:34:38.148Z,6.50
2023-01-12T06:37:07.119Z,11.27
2023-01-12T06:39:34.452Z,10.67
2023-01-12T06:42:20.189Z,5.50
2023-01-12T06:44:48.831Z,11.77
2023-01-12T06:47:16.022Z,7.73
2023-01-12T06:49:46.258Z,6.13
2023-01-12T06:52:16.441Z,7.77
2023-01-12T06:54:47.125Z,8.10
2023-01-12T06:57:16.253Z,6.40
2023-01-12T06:59:44.450Z,11.57
2023-01-12T07:02:13.634Z,10.03
2023-01-12T07:04:42.000Z,14.67
2023-01-12T07:07:10.906Z,8.97
2023-01-12T07:09:39.223Z,6.47
2023-01-12T07:12:07.484Z,7.43
2023-01-12T07:14:35.565Z,8.50
2023-01-12T07:17:03.692Z,8.40
2023-01-12T07:19:31.766Z,11.47
2023-01-12T07:21:59.679Z,5.27
2023-01-12T07:24:27.554Z,6.90
2023-01-12T07:26:58.053Z,5.43
2023-01-12T07:29:25.259Z,7.07
2023-01-12T07:31:51.857Z,8.17
2023-01-12T07:34:18.481Z,5.13
2023-01-12T07:36:47.757Z,5.80
2023-01-12T07:39:14.525Z,6.27
2023-01-12T07:41:59.757Z,7.93
2023-01-12T07:44:26.315Z,9.73
2023-01-12T07:46:52.897Z,9.27
2023-01-12T07:49:19.581Z,8.50
2023-01-12T07:51:46.192Z,5.33
2023-01-12T07:54:12.809Z,11.27
2023-01-12T07:56:39.353Z,7.53
2023-01-12T07:59:05.927Z,7.00
2023-01-12T08:01:32.823Z,6.47
2023-01-12T08:03:59.697Z,8.15
2023-01-12T08:06:26.335Z,9.37
2023-01-12T08:08:54.440Z,7.40
2023-01-12T08:11:22.806Z,3.80
2023-01-12T08:13:55.102Z,11.07
2023-01-12T08:16:29.076Z,6.37
2023-01-12T08:19:04.056Z,9.93
2023-01-12T08:21:39.570Z,9.87
2023-01-12T08:24:09.385Z,6.73
2023-01-12T08:26:41.423Z,8.67
2023-01-12T08:29:12.921Z,6.13
2023-01-12T08:31:40.314Z,8.20
2023-01-12T08:34:08.825Z,8.93
2023-01-12T08:36:35.776Z,7.70
2023-01-12T08:39:04.237Z,5.73
2023-01-12T08:41:34.300Z,7.60
2023-01-12T08:44:08.179Z,7.63
2023-01-12T08:46:45.343Z,7.10
2023-01-12T08:49:16.923Z,6.27
2023-01-12T08:51:43.840Z,5.20
2023-01-12T08:54:12.578Z,7.20
2023-01-12T08:56:39.135Z,7.30
2023-01-12T08:59:05.937Z,7.37
2023-01-12T09:01:33.511Z,4.90
2023-01-12T09:04:00.762Z,4.83
2023-01-12T09:06:32.765Z,6.30
2023-01-12T09:09:01.332Z,6.63
2023-01-12T09:11:30.011Z,7.10
2023-01-12T09:13:58.523Z,7.53
2023-01-12T09:16:27.282Z,11.47
2023-01-12T09:18:53.915Z,9.60
2023-01-12T09:21:23.227Z,7.33
2023-01-12T09:23:50.115Z,8.37
2023-01-12T09:26:21.951Z,9.20
2023-01-12T09:28:48.946Z,8.50
2023-01-12T09:31:19.233Z,11.10
2023-01-12T09:33:46.504Z,8.37
2023-01-12T09:36:16.021Z,5.70
2023-01-12T09:38:44.349Z,7.17
2023-01-12T09:41:16.396Z,8.27
2023-01-12T09:44:02.095Z,10.03
2023-01-12T09:46:53.510Z,8.47
2023-01-12T09:49:24.004Z,4.90
2023-01-12T09:52:13.250Z,4.53
2023-01-12T09:54:40.029Z,6.97
2023-01-12T09:57:36.869Z,9.43
2023-01-12T10:00:16.142Z,8.47
2023-01-12T10:02:47.594Z,7.03
2023-01-12T10:05:43.309Z,7.80
2023-01-12T10:08:17.401Z,5.17
2023-01-12T10:11:16.692Z,5.80
2023-01-12T10:14:21.881Z,6.60
2023-01-12T10:17:06.389Z,7.23
2023-01-12T10:20:05.342Z,10.23
2023-01-12T10:22:54.519Z,4.10
2023-01-12T10:25:36.145Z,4.27
2023-01-12T10:28:10.123Z,9.17
2023-01-12T10:30:44.497Z,9.27
2023-01-12T10:33:16.853Z,4.47
2023-01-12T10:35:57.515Z,7.30
2023-01-12T10:38:26.960Z,5.90
2023-01-12T10:41:06.365Z,5.20
2023-01-12T10:43:34.118Z,5.87
2023-01-12T10:46:21.839Z,3.80
2023-01-12T10:48:56.097Z,8.27
2023-01-12T10:51:48.507Z,6.80
2023-01-12T10:54:22.145Z,6.50
2023-01-12T10:57:12.736Z,3.80
2023-01-12T10:59:40.215Z,7.80
2023-01-12T11:02:07.748Z,6.23
2023-01-12T11:04:54.414Z,4.80
2023-01-12T11:07:22.726Z,8.47
2023-01-12T11:09:49.403Z,4.17
2023-01-12T11:12:20.937Z,5.53
2023-01-12T11:15:24.417Z,4.60
2023-01-12T11:18:28.016Z,6.50
2023-01-12T11:21:01.879Z,7.27
2023-01-12T11:23:47.874Z,2.93
2023-01-12T11:26:28.671Z,3.07
2023-01-12T11:29:02.648Z,3.87
2023-01-12T11:31:38.347Z,2.87
2023-01-12T11:34:22.224Z,4.47
2023-01-12T11:37:02.983Z,3.13
2023-01-12T11:39:31.462Z,2.07
2023-01-12T11:42:20.851Z,3.60
2023-01-12T11:44:56.924Z,2.97
2023-01-12T11:47:36.331Z,5.77
2023-01-12T11:50:11.815Z,2.95
2023-01-12T11:52:41.471Z,2.80
2023-01-12T11:55:13.169Z,2.20
2023-01-12T11:58:03.646Z,2.13
2023-01-12T12:01:03.151Z,2.30
2023-01-12T12:03:39.140Z,1.93
2023-01-12T12:06:06.187Z,3.00
2023-01-12T12:08:38.954Z,2.33
2023-01-12T12:11:26.827Z,4.27
2023-01-12T12:14:20.699Z,3.93
2023-01-12T12:16:54.410Z,1.50
2023-01-12T12:19:20.994Z,3.43
2023-01-12T12:21:48.926Z,2.03
2023-01-12T12:24:47.017Z,1.63
2023-01-12T12:27:39.156Z,2.33
2023-01-12T12:30:37.054Z,3.15
2023-01-12T12:33:24.861Z,7.23
2023-01-12T12:36:06.298Z,3.17
2023-01-12T12:38:48.088Z,2.10
2023-01-12T12:41:48.520Z,1.53
2023-01-12T12:45:15.578Z,3.90
2023-01-12T12:47:53.983Z,2.17
2023-01-12T12:50:30.629Z,2.57
2023-01-12T12:53:09.833Z,2.57
2023-01-12T12:55:37.531Z,8.87
2023-01-12T12:58:24.705Z,7.13
2023-01-12T13:00:56.699Z,2.37
2023-01-12T13:03:41.595Z,3.33
2023-01-12T13:06:24.248Z,1.63
2023-01-12T13:08:53.751Z,2.97
2023-01-12T13:11:21.227Z,1.67
2023-01-12T13:14:04.038Z,3.73
2023-01-12T13:16:30.548Z,2.17
2023-01-12T13:18:59.329Z,2.20
2023-01-12T13:21:55.958Z,2.93
2023-01-12T13:24:34.181Z,3.33
2023-01-12T13:27:03.575Z,1.77
2023-01-12T13:29:30.748Z,2.30
2023-01-12T13:31:58.995Z,5.33
2023-01-12T13:34:29.686Z,3.40
2023-01-12T13:37:07.758Z,1.90
2023-01-12T13:40:19.333Z,3.50
2023-01-12T13:43:07.917Z,1.40
2023-01-12T13:45:35.617Z,3.30
2023-01-12T13:48:05.841Z,3.77
2023-01-12T13:50:34.775Z,4.67
2023-01-12T13:53:03.310Z,2.87
2023-01-12T13:55:33.107Z,4.93
2023-01-12T13:58:01.869Z,7.00
2023-01-12T14:00:32.223Z,1.20
2023-01-12T14:02:59.862Z,2.97
2023-01-12T14:05:36.668Z,3.03
2023-01-12T14:08:18.519Z,2.20
2023-01-12T14:10:53.509Z,4.33
2023-01-12T14:13:42.938Z,2.20
2023-01-12T14:16:34.199Z,6.23
2023-01-12T14:19:01.502Z,1.97
2023-01-12T14:21:37.360Z,3.20
2023-01-12T14:24:24.885Z,1.97
2023-01-12T14:26:52.969Z,2.90
2023-01-12T14:29:19.609Z,4.10
2023-01-12T14:31:51.957Z,3.23
2023-01-12T14:34:32.677Z,1.20
2023-01-12T14:36:59.784Z,6.93
2023-01-12T14:39:28.729Z,3.10
2023-01-12T14:42:15.218Z,1.93
2023-01-12T14:45:10.280Z,1.27
2023-01-12T14:47:37.403Z,4.10
2023-01-12T14:50:12.804Z,3.97
2023-01-12T14:52:41.864Z,3.73
2023-01-12T14:55:14.576Z,3.53
2023-01-12T14:57:41.687Z,2.67
2023-01-12T15:00:18.479Z,2.57
2023-01-12T15:02:51.462Z,1.20
2023-01-12T15:05:22.279Z,2.00
2023-01-12T15:08:27.744Z,3.97
2023-01-12T15:10:58.652Z,3.30
2023-01-12T15:13:32.842Z,2.67
2023-01-12T15:16:19.066Z,0.97
2023-01-12T15:19:04.951Z,2.50
2023-01-12T15:21:51.565Z,3.17
2023-01-12T15:24:53.532Z,1.40
2023-01-12T15:27:22.910Z,1.00
2023-01-12T15:29:49.451Z,1.37
2023-01-12T15:32:47.409Z,2.50
2023-01-12T15:35:23.755Z,2.10
2023-01-12T15:37:52.903Z,2.87
2023-01-12T15:40:20.052Z,2.40
2023-01-12T15:42:47.766Z,3.00
2023-01-12T15:45:27.192Z,0.87
2023-01-12T15:47:54.063Z,2.23
2023-01-12T15:50:20.690Z,6.00
2023-01-12T15:52:48.739Z,2.37
2023-01-12T15:55:18.383Z,1.73
2023-01-12T15:57:45.026Z,3.37
2023-01-12T16:00:17.777Z,3.17
2023-01-12T16:02:48.722Z,2.47
2023-01-12T16:05:17.397Z,4.37
2023-01-12T16:07:44.016Z,4.20
2023-01-12T16:10:12.535Z,2.30
2023-01-12T16:12:39.404Z,1.50
2023-01-12T16:15:08.789Z,4.10
2023-01-12T16:17:35.447Z,2.27
2023-01-12T16:20:02.064Z,1.80
2023-01-12T16:22:28.793Z,2.47
2023-01-12T16:24:56.849Z,3.03
2023-01-12T16:27:25.917Z,2.60
2023-01-12T16:29:53.115Z,2.67
2023-01-12T16:32:23.950Z,3.77
2023-01-12T16:34:50.565Z,4.07
2023-01-12T16:37:19.666Z,3.17
2023-01-12T16:39:46.286Z,4.00
2023-01-12T16:42:12.843Z,3.10
2023-01-12T16:44:40.209Z,2.77
2023-01-12T16:47:15.126Z,2.23
2023-01-12T16:49:42.502Z,3.53
2023-01-12T16:52:14.106Z,3.70
2023-01-12T16:54:42.552Z,2.30
2023-01-12T16:57:11.258Z,3.23
2023-01-12T16:59:38.166Z,3.73
2023-01-12T17:02:08.102Z,2.77
2023-01-12T17:04:35.962Z,4.07
2023-01-12T17:07:03.820Z,2.87
2023-01-12T17:09:30.622Z,2.80
2023-01-12T17:11:58.316Z,4.10
2023-01-12T17:14:25.462Z,2.73
2023-01-12T17:16:56.195Z,4.50
2023-01-12T17:19:24.922Z,4.53
2023-01-12T17:21:53.920Z,3.00
2023-01-12T17:24:21.494Z,3.20
2023-01-12T17:26:50.208Z,2.43
2023-01-12T17:29:16.821Z,5.50
2023-01-12T17:31:43.460Z,4.17
2023-01-12T17:34:12.823Z,3.87
2023-01-12T17:36:39.854Z,3.70
2023-01-12T17:39:07.182Z,3.57
2023-01-12T17:41:52.718Z,3.60
2023-01-12T17:44:19.755Z,2.47
2023-01-12T17:46:47.098Z,4.43
2023-01-12T17:49:14.089Z,2.07
2023-01-12T17:51:41.815Z,3.93
2023-01-12T17:54:12.695Z,2.57
2023-01-12T17:56:39.324Z,3.07
2023-01-12T17:59:06.317Z,4.43
2023-01-12T18:01:35.854Z,2.37
2023-01-12T18:04:03.094Z,2.60
2023-01-12T18:06:29.715Z,2.83
2023-01-12T18:08:59.651Z,3.93
2023-01-12T18:11:27.758Z,3.50
2023-01-12T18:13:55.098Z,2.50
2023-01-12T18:16:22.556Z,2.50
2023-01-12T18:18:50.045Z,2.70
2023-01-12T18:21:20.825Z,2.60
2023-01-12T18:23:49.672Z,1.50
2023-01-12T18:26:25.198Z,3.20
2023-01-12T18:28:53.834Z,1.57
2023-01-12T18:31:23.751Z,3.00
2023-01-12T18:33:54.490Z,2.20
2023-01-12T18:36:24.392Z,3.77
2023-01-12T18:38:52.120Z,3.30
2023-01-12T18:41:38.753Z,3.80
2023-01-12T18:44:06.287Z,3.17
2023-01-12T18:46:52.808Z,2.87
2023-01-12T18:49:23.832Z,2.60
2023-01-12T18:52:09.825Z,2.97
2023-01-12T18:54:48.757Z,2.90
2023-01-12T18:57:19.261Z,4.47
2023-01-12T18:59:46.759Z,3.33
2023-01-12T19:02:14.407Z,5.87
2023-01-12T19:04:49.897Z,3.20
2023-01-12T19:07:43.851Z,2.70
2023-01-12T19:10:10.655Z,4.80
2023-01-12T19:12:37.231Z,3.43
2023-01-12T19:15:22.456Z,2.63
2023-01-12T19:17:49.061Z,5.90
2023-01-12T19:20:17.131Z,1.43
2023-01-12T19:23:02.306Z,1.83
2023-01-12T19:25:47.954Z,2.60
2023-01-12T19:28:34.994Z,1.87
2023-01-12T19:31:04.144Z,1.93
2023-01-12T19:33:30.935Z,2.10
2023-01-12T19:35:57.624Z,1.37
2023-01-12T19:38:24.600Z,2.73
2023-01-12T19:40:54.884Z,1.87
2023-01-12T19:43:26.111Z,2.43
2023-01-12T19:45:59.210Z,3.63
2023-01-12T19:48:26.657Z,1.70
2023-01-12T19:50:54.155Z,2.63
2023-01-12T19:53:22.936Z,3.87
2023-01-12T19:55:50.211Z,5.80
2023-01-12T19:58:16.840Z,3.07
2023-01-12T20:00:47.749Z,3.30
2023-01-12T20:03:19.506Z,3.67
2023-01-12T20:05:48.067Z,3.83
2023-01-12T20:08:15.324Z,4.77
2023-01-12T20:10:42.084Z,2.37
2023-01-12T20:13:12.005Z,3.23
2023-01-12T20:15:40.475Z,4.90
2023-01-12T20:18:08.671Z,2.67
2023-01-12T20:20:35.590Z,3.50
2023-01-12T20:23:02.247Z,1.00
2023-01-12T20:25:28.944Z,2.13
2023-01-12T20:27:55.765Z,3.03
2023-01-12T20:30:36.827Z,1.97
2023-01-12T20:33:04.550Z,1.23
2023-01-12T20:35:32.320Z,1.30
2023-01-12T20:37:58.927Z,2.77
2023-01-12T20:40:25.580Z,2.07
2023-01-12T20:42:52.149Z,2.40
2023-01-12T20:45:19.026Z,2.27
2023-01-12T20:47:45.666Z,2.97
2023-01-12T20:50:14.659Z,2.07
2023-01-12T20:52:41.592Z,3.17
2023-01-12T20:55:08.441Z,6.03
2023-01-12T20:57:37.000Z,2.03
2023-01-12T21:00:05.596Z,2.20
2023-01-12T21:02:32.870Z,2.73
2023-01-12T21:04:59.430Z,1.97
2023-01-12T21:07:26.595Z,1.90
2023-01-12T21:09:53.179Z,3.07
2023-01-12T21:12:19.822Z,2.70
2023-01-12T21:14:46.489Z,2.73
2023-01-12T21:17:13.484Z,3.07
2023-01-12T21:19:40.442Z,2.90
2023-01-12T21:22:07.223Z,2.93
2023-01-12T21:24:34.204Z,3.53
2023-01-12T21:27:00.864Z,5.23
2023-01-12T21:29:27.529Z,2.10
2023-01-12T21:31:54.500Z,4.30
2023-01-12T21:34:21.092Z,3.60
2023-01-12T21:36:48.578Z,3.87
2023-01-12T21:39:15.345Z,3.70
2023-01-12T21:42:01.076Z,4.37
2023-01-12T21:44:27.624Z,2.10
2023-01-12T21:46:54.288Z,3.47
2023-01-12T21:49:20.866Z,4.20
2023-01-12T21:51:47.453Z,2.50
2023-01-12T21:54:14.092Z,2.75
2023-01-12T21:56:40.667Z,3.60
2023-01-12T21:59:07.316Z,1.40
2023-01-12T22:01:34.031Z,2.77
2023-01-12T22:04:00.900Z,3.90
2023-01-12T22:06:27.559Z,4.60
2023-01-12T22:08:54.120Z,2.97
2023-01-12T22:11:20.711Z,2.87
2023-01-12T22:13:47.433Z,3.40
2023-01-12T22:16:15.632Z,3.33
2023-01-12T22:18:50.316Z,4.83
2023-01-12T22:21:19.155Z,4.20
2023-01-12T22:23:46.630Z,3.57
2023-01-12T22:26:14.812Z,3.70
2023-01-12T22:28:43.624Z,1.80
2023-01-12T22:31:13.064Z,2.47
2023-01-12T22:33:39.964Z,2.67
2023-01-12T22:36:07.625Z,2.27
2023-01-12T22:38:34.274Z,3.27
2023-01-12T22:41:09.723Z,3.60
2023-01-12T22:43:44.609Z,4.33
2023-01-12T22:46:21.165Z,5.57
2023-01-12T22:48:49.789Z,2.53
2023-01-12T22:51:17.745Z,2.33
2023-01-12T22:53:44.370Z,2.87
2023-01-12T22:56:12.029Z,1.57
2023-01-12T22:58:39.933Z,2.23
2023-01-12T23:01:09.580Z,3.63
2023-01-12T23:03:37.770Z,4.40
2023-01-12T23:06:05.966Z,4.50
2023-01-12T23:08:33.086Z,3.33
2023-01-12T23:11:14.859Z,4.03
2023-01-12T23:13:43.783Z,3.23
2023-01-12T23:16:12.723Z,3.23
2023-01-12T23:18:41.460Z,2.97
2023-01-12T23:21:16.637Z,2.27
2023-01-12T23:23:48.672Z,3.23
2023-01-12T23:26:19.094Z,2.77
2023-01-12T23:28:48.441Z,3.87
2023-01-12T23:31:19.155Z,2.30
2023-01-12T23:33:45.927Z,3.57
2023-01-12T23:36:15.064Z,2.63
2023-01-12T23:38:42.764Z,3.97
2023-01-12T23:41:21.233Z,3.80
2023-01-12T23:43:49.810Z,3.20
2023-01-12T23:46:20.152Z,3.27
2023-01-12T23:48:46.876Z,3.50
2023-01-12T23:51:13.954Z,5.23
2023-01-12T23:53:40.747Z,5.07
2023-01-12T23:56:10.552Z,2.23
2023-01-12T23:58:37.721Z,3.20
